createdAt,value
2023-01-22T00:03:29.670Z,4.87
2023-01-22T00:08:27.979Z,3.97
2023-01-22T00:13:28.858Z,4.90
2023-01-22T00:18:27.484Z,5.63
2023-01-22T00:23:26.367Z,3.90
2023-01-22T00:28:24.653Z,4.57
2023-01-22T00:33:24.267Z,4.03
2023-01-22T00:38:22.552Z,6.17
2023-01-22T00:43:21.053Z,3.30
2023-01-22T00:48:19.288Z,8.20
2023-01-22T00:53:19.141Z,5.70
2023-01-22T00:58:17.363Z,3.30
2023-01-22T01:03:35.732Z,3.93
2023-01-22T01:08:38.503Z,4.20
2023-01-22T01:13:39.969Z,5.93
2023-01-22T01:18:38.368Z,7.70
2023-01-22T01:23:38.019Z,4.50
2023-01-22T01:28:37.864Z,3.87
2023-01-22T01:33:36.655Z,3.60
2023-01-22T01:38:34.842Z,8.17
2023-01-22T01:43:34.589Z,3.90
2023-01-22T01:48:36.968Z,5.90
2023-01-22T01:53:36.244Z,6.60
2023-01-22T01:58:37.596Z,5.00
2023-01-22T02:03:36.220Z,5.60
2023-01-22T02:08:34.487Z,5.60
2023-01-22T02:13:36.410Z,6.10
2023-01-22T02:18:35.017Z,5.90
2023-01-22T02:23:34.617Z,5.93
2023-01-22T02:28:32.874Z,4.37
2023-01-22T02:33:31.296Z,4.70
2023-01-22T02:38:29.648Z,4.33
2023-01-22T02:43:29.382Z,4.30
2023-01-22T02:48:29.193Z,3.47
2023-01-22T02:53:27.464Z,7.07
2023-01-22T02:58:25.751Z,4.90
2023-01-22T03:03:25.378Z,4.07
2023-01-22T03:08:26.748Z,3.60
2023-01-22T03:13:42.895Z,3.80
2023-01-22T03:19:00.657Z,3.63
2023-01-22T03:23:58.725Z,3.30
2023-01-22T03:28:57.120Z,5.17
2023-01-22T03:33:56.716Z,3.73
2023-01-22T03:38:55.071Z,4.20
2023-01-22T03:43:55.847Z,5.10
2023-01-22T03:49:03.207Z,3.00
2023-01-22T03:54:02.273Z,3.30
2023-01-22T03:59:00.726Z,3.60
2023-01-22T04:04:01.928Z,3.07
2023-01-22T04:09:00.259Z,5.27
2023-01-22T04:14:10.256Z,5.77
2023-01-22T04:19:14.828Z,4.20
2023-01-22T04:24:48.388Z,3.20
2023-01-22T04:29:47.574Z,6.57
2023-01-22T04:34:48.092Z,6.00
2023-01-22T04:40:05.726Z,3.47
2023-01-22T04:45:08.139Z,3.90
2023-01-22T04:50:08.876Z,3.93
2023-01-22T04:55:08.624Z,7.60
2023-01-22T05:00:18.933Z,5.03
2023-01-22T05:05:19.651Z,4.57
2023-01-22T05:10:18.635Z,4.57
2023-01-22T05:15:24.091Z,6.70
2023-01-22T05:20:28.373Z,6.03
2023-01-22T05:25:27.442Z,5.23
2023-01-22T05:30:27.766Z,5.77
2023-01-22T05:35:32.397Z,6.60
2023-01-22T05:40:30.961Z,7.17
2023-01-22T05:45:29.480Z,6.90
2023-01-22T05:50:51.765Z,7.63
2023-01-22T05:55:50.075Z,8.17
2023-01-22T06:00:48.675Z,7.70
2023-01-22T06:06:00.561Z,6.03
2023-01-22T06:11:02.289Z,7.70
2023-01-22T06:16:01.228Z,6.90
2023-01-22T06:21:20.671Z,6.50
2023-01-22T06:26:19.157Z,8.33
2023-01-22T06:31:18.300Z,9.60
2023-01-22T06:36:17.424Z,8.83
2023-01-22T06:41:17.175Z,8.10
2023-01-22T06:46:17.280Z,7.83
2023-01-22T06:51:47.513Z,7.17
2023-01-22T06:56:47.192Z,8.23
2023-01-22T07:01:49.125Z,9.00
2023-01-22T07:06:47.426Z,8.00
2023-01-22T07:11:46.865Z,7.57
2023-01-22T07:16:45.104Z,7.60
2023-01-22T07:21:43.345Z,10.80
2023-01-22T07:26:41.568Z,9.10
2023-01-22T07:31:41.185Z,9.10
2023-01-22T07:36:39.443Z,8.20
2023-01-22T07:41:37.661Z,11.17
2023-01-22T07:46:43.494Z,9.73
2023-01-22T07:51:41.758Z,11.20
2023-01-22T07:56:39.987Z,9.50
2023-01-22T08:01:38.272Z,9.57
2023-01-22T08:06:37.906Z,9.10
2023-01-22T08:11:36.147Z,8.00
2023-01-22T08:16:35.894Z,7.73
2023-01-22T08:21:34.302Z,7.30
2023-01-22T08:26:33.914Z,7.83
2023-01-22T08:31:32.273Z,9.07
2023-01-22T08:36:30.632Z,6.87
2023-01-22T08:41:28.888Z,7.47
2023-01-22T08:46:28.492Z,7.50
2023-01-22T08:51:26.978Z,8.00
2023-01-22T08:56:25.301Z,8.30
2023-01-22T09:01:23.647Z,9.20
2023-01-22T09:06:23.264Z,11.73
2023-01-22T09:11:21.575Z,11.50
2023-01-22T09:16:19.888Z,8.67
2023-01-22T09:21:18.259Z,8.87
2023-01-22T09:26:17.873Z,11.97
2023-01-22T09:31:17.259Z,10.50
2023-01-22T09:36:17.954Z,10.10
2023-01-22T09:41:23.657Z,11.23
2023-01-22T09:46:28.826Z,11.53
2023-01-22T09:51:27.212Z,11.93
2023-01-22T09:56:32.262Z,11.10
2023-01-22T10:01:31.639Z,11.13
2023-01-22T10:06:30.539Z,10.17
2023-01-22T10:11:30.292Z,9.43
2023-01-22T10:16:29.136Z,11.60
2023-01-22T10:21:30.988Z,14.27
2023-01-22T10:26:37.758Z,14.00
2023-01-22T10:31:38.508Z,10.40
2023-01-22T10:36:36.908Z,11.17
2023-01-22T10:41:36.552Z,13.97
2023-01-22T10:46:34.822Z,13.80
2023-01-22T10:51:36.926Z,14.83
2023-01-22T10:56:38.884Z,12.53
2023-01-22T11:01:40.318Z,11.30
2023-01-22T11:06:42.606Z,13.43
2023-01-22T11:11:47.359Z,12.70
2023-01-22T11:16:47.976Z,11.57
2023-01-22T11:21:50.506Z,12.47
2023-01-22T11:27:07.096Z,13.87
2023-01-22T11:32:37.539Z,13.13
2023-01-22T11:37:48.204Z,12.60
2023-01-22T11:43:03.497Z,12.80
2023-01-22T11:48:20.486Z,12.77
2023-01-22T11:53:39.027Z,12.77
2023-01-22T11:58:46.687Z,10.77
2023-01-22T12:04:20.679Z,9.87
2023-01-22T12:09:24.200Z,14.00
2023-01-22T12:14:40.457Z,11.13
2023-01-22T12:19:58.874Z,13.47
2023-01-22T12:25:03.053Z,11.90
2023-01-22T12:30:14.013Z,13.00
2023-01-22T12:35:16.991Z,12.93
2023-01-22T12:40:30.394Z,11.70
2023-01-22T12:45:40.324Z,13.53
2023-01-22T12:50:49.396Z,12.73
2023-01-22T12:55:59.545Z,15.30
2023-01-22T13:01:05.485Z,15.00
2023-01-22T13:06:05.894Z,16.37
2023-01-22T13:11:06.413Z,16.20
2023-01-22T13:16:07.895Z,14.03
2023-01-22T13:21:08.238Z,15.40
2023-01-22T13:26:06.754Z,16.00
2023-01-22T13:31:11.122Z,18.67
2023-01-22T13:36:11.797Z,14.20
2023-01-22T13:41:13.208Z,16.93
2023-01-22T13:46:15.885Z,15.40
2023-01-22T13:51:18.645Z,21.17
2023-01-22T13:56:18.459Z,18.33
2023-01-22T14:01:30.842Z,18.37
2023-01-22T14:06:29.707Z,16.53
2023-01-22T14:11:38.940Z,22.70
2023-01-22T14:16:42.619Z,28.00
2023-01-22T14:21:41.315Z,18.20
2023-01-22T14:26:39.932Z,21.70
2023-01-22T14:31:38.189Z,21.87
2023-01-22T14:36:37.832Z,20.37
2023-01-22T14:41:36.101Z,18.60
2023-01-22T14:46:34.217Z,22.40
2023-01-22T14:51:32.461Z,23.73
2023-01-22T14:56:32.048Z,18.90
2023-01-22T15:01:30.298Z,20.03
2023-01-22T15:06:28.383Z,24.93
2023-01-22T15:11:27.410Z,22.30
2023-01-22T15:16:27.096Z,26.53
2023-01-22T15:21:25.349Z,21.13
2023-01-22T15:26:29.150Z,19.80
2023-01-22T15:31:28.815Z,26.40
2023-01-22T15:36:27.302Z,20.13
2023-01-22T15:41:27.029Z,20.57
2023-01-22T15:46:27.029Z,31.33
2023-01-22T15:51:27.865Z,21.40
2023-01-22T15:56:28.849Z,26.07
2023-01-22T16:01:28.426Z,26.30
2023-01-22T16:06:29.699Z,21.80
2023-01-22T16:11:29.037Z,28.37
2023-01-22T16:16:31.248Z,22.43
2023-01-22T16:21:31.153Z,26.90
2023-01-22T16:26:31.207Z,27.57
2023-01-22T16:31:30.651Z,29.93
2023-01-22T16:36:32.430Z,26.13
2023-01-22T16:41:32.351Z,23.47
2023-01-22T16:46:32.149Z,20.50
2023-01-22T16:51:45.814Z,29.53
2023-01-22T16:56:44.088Z,24.80
2023-01-22T17:01:42.600Z,25.67
2023-01-22T17:06:44.056Z,23.60
2023-01-22T17:11:43.634Z,24.53
2023-01-22T17:16:41.940Z,27.20
2023-01-22T17:21:41.762Z,22.97
2023-01-22T17:26:42.119Z,20.57
2023-01-22T17:31:40.591Z,28.67
2023-01-22T17:36:41.393Z,24.87
2023-01-22T17:41:39.690Z,26.90
2023-01-22T17:46:38.068Z,23.80
2023-01-22T17:51:36.894Z,23.40
2023-01-22T17:56:38.938Z,27.50
2023-01-22T18:01:39.001Z,23.93
2023-01-22T18:06:38.851Z,20.80
2023-01-22T18:11:39.341Z,21.33
2023-01-22T18:16:40.971Z,20.70
2023-01-22T18:21:40.513Z,20.50
2023-01-22T18:26:40.432Z,21.60
2023-01-22T18:31:39.346Z,20.67
2023-01-22T18:36:40.623Z,26.87
2023-01-22T18:41:40.935Z,21.07
2023-01-22T18:46:41.491Z,21.47
2023-01-22T18:51:41.495Z,18.10
2023-01-22T18:56:41.145Z,21.43
2023-01-22T19:01:40.480Z,17.97
2023-01-22T19:06:39.950Z,18.83
2023-01-22T19:11:41.152Z,20.67
2023-01-22T19:16:39.600Z,19.03
2023-01-22T19:21:40.287Z,20.23
2023-01-22T19:26:40.760Z,22.23
2023-01-22T19:31:41.266Z,21.43
2023-01-22T19:36:40.416Z,20.17
2023-01-22T19:41:40.332Z,20.33
2023-01-22T19:46:39.261Z,19.20
2023-01-22T19:51:37.603Z,24.47
2023-01-22T19:56:38.024Z,21.93
2023-01-22T20:01:38.016Z,20.30
2023-01-22T20:06:36.800Z,17.87
2023-01-22T20:11:35.137Z,17.67
2023-01-22T20:16:33.471Z,18.00
2023-01-22T20:21:33.252Z,20.43
2023-01-22T20:26:31.540Z,19.60
2023-01-22T20:31:29.914Z,19.30
2023-01-22T20:36:29.293Z,19.70
2023-01-22T20:41:30.178Z,19.43
2023-01-22T20:46:28.880Z,16.77
2023-01-22T20:51:29.430Z,19.77
2023-01-22T20:56:32.837Z,20.73
2023-01-22T21:01:31.523Z,20.30
2023-01-22T21:06:31.994Z,17.67
2023-01-22T21:11:32.878Z,19.60
2023-01-22T21:16:33.655Z,19.67
2023-01-22T21:21:33.161Z,22.53
2023-01-22T21:26:34.115Z,18.90
2023-01-22T21:31:32.985Z,25.73
2023-01-22T21:36:31.955Z,25.57
2023-01-22T21:41:30.298Z,21.60
2023-01-22T21:46:32.477Z,28.03
2023-01-22T21:51:32.159Z,23.00
2023-01-22T21:56:30.449Z,26.80
2023-01-22T22:01:32.057Z,23.97
2023-01-22T22:06:31.580Z,23.30
2023-01-22T22:11:30.175Z,26.43
2023-01-22T22:16:29.877Z,23.97
2023-01-22T22:21:28.262Z,23.70
2023-01-22T22:26:27.291Z,22.30
2023-01-22T22:31:26.146Z,25.27
2023-01-22T22:36:28.675Z,28.67
2023-01-22T22:41:28.847Z,25.53
2023-01-22T22:46:28.777Z,24.90
2023-01-22T22:51:30.239Z,20.17
2023-01-22T22:56:29.759Z,24.80
2023-01-22T23:01:29.208Z,21.93
2023-01-22T23:06:30.307Z,25.93
2023-01-22T23:11:40.510Z,23.23
2023-01-22T23:16:40.384Z,22.10
2023-01-22T23:21:41.435Z,24.20
2023-01-22T23:26:40.768Z,25.10
2023-01-22T23:31:40.295Z,26.93
2023-01-22T23:36:41.087Z,21.87
2023-01-22T23:41:39.330Z,24.70
2023-01-22T23:46:37.541Z,24.60
2023-01-22T23:51:36.838Z,24.80
2023-01-22T23:56:37.582Z,26.30
